Ottawa/Macdonald-Cartier International Airport

CYOW · Ontario, Canada

Storia di METAR CYOW · Ottawa/Macdonald-Cartier International Airport

Di seguito sono riportati i METAR degli ultimi giorni. Seleziona un anno per sfogliare i METAR più vecchi, dall'anno 2007 in poi.

20 aprile 2024

Tempo Codice Tempo meteorologico Temp. Vista Base nuvolosa Vento METAR/SPECI
17:00
V
4 °C 15 mi 6.400 ft 230° 230° 7 kt METAR CYOW 202100Z 23007KT 15SM FEW020 BKN064 BKN100 04/04 A2986 RMK CU2SC3AC1 SH E SLP117
16:25
M
5 °C 15 mi 3.000 ft 270° 270° 22 - 36 kt METAR CYOW 202025Z 27022G36KT 220V280 15SM -SHRA BKN030 OVC100 05/02 A2986 RMK CU7AC3 PRESRR SLP118
16:00
V
8 °C 15 mi 10.000 ft 260° 260° 11 - 17 kt METAR CYOW 202000Z 26011G17KT 15SM SCT030 BKN100 BKN250 08/00 A2984 RMK CU3AC2CI2 SLP110
15:00
V
7 °C 15 mi 8.300 ft 260° 260° 9 - 17 kt METAR CYOW 201900Z 26009G17KT 15SM SCT030 OVC083 07/M00 A2984 RMK CU3AC5 SLP112
14:00
V
5 °C 15 mi 4.000 ft 240° 240° 8 kt METAR CYOW 201800Z 24008KT 15SM FEW020 OVC040 05/01 A2986 RMK CU1SC7 SLP117
13:42
V
5 °C 15 mi 4.000 ft 250° 250° 8 kt METAR CYOW 201742Z 25008KT 15SM FEW015 OVC040 05/02 A2986 RMK SC2SC6 SLP119
13:00
M
4 °C 15 mi 1.400 ft 280° 280° 10 kt METAR CYOW 201700Z 28010KT 15SM -RA BKN014 OVC030 04/02 A2988 RMK SC6SC2 SLP124
12:00
M
4 °C 12 mi 1.200 ft 280° 280° 7 kt METAR CYOW 201600Z 28007KT 12SM -SHRA BKN012 OVC030 04/02 A2989 RMK SC5SC3 SLP127
11:00
M
4 °C 12 mi 2.600 ft 270° 270° 6 kt METAR CYOW 201500Z 27006KT 230V320 12SM -SHRA OVC026 04/M00 A2989 RMK SC8 SLP127
10:48
M
4 °C 12 mi 3.000 ft 260° 260° 4 - 15 kt METAR CYOW 201448Z 26004G15KT 12SM -SHRA OVC030 04/M02 A2989 RMK SC8 SLP127
10:00
V
6 °C 15 mi 5.000 ft 280° 280° 10 - 17 kt METAR CYOW 201400Z 28010G17KT 15SM FEW020 BKN050 OVC080 06/M02 A2989 RMK CU1SC6AC1 SLP126
09:00
V
5 °C 15 mi 5.000 ft 230° 230° 9 kt METAR CYOW 201300Z 23009KT 15SM BKN050 OVC120 05/M01 A2990 RMK SC6AC2 SLP129
08:00
V
4 °C 15 mi 11.000 ft 230° 230° 7 kt METAR CYOW 201200Z 23007KT 15SM FEW064 BKN110 04/M02 A2990 RMK SC1AC6 SLP131=
07:00
V
3 °C 15 mi - 230° 230° 6 kt METAR CYOW 201100Z 23006KT 15SM SCT180 03/M02 A2991 RMK AC3 SLP134=
06:00
V
2 °C 15 mi - 240° 240° 7 kt METAR CYOW 201000Z 24007KT 15SM SCT180 02/M02 A2991 RMK AC3 SLP133=
05:00
V
4 °C 15 mi 18.000 ft 250° 250° 10 kt METAR CYOW 200900Z 25010KT 15SM SCT090 BKN180 04/M03 A2989 RMK AC3AC3 SLP127=
04:00
V
5 °C 15 mi 9.000 ft 250° 250° 9 kt METAR CYOW 200800Z 25009KT 15SM BKN090 BKN150 05/M02 A2987 RMK AC6AC1 SLP121=
03:00
V
5 °C 15 mi 9.000 ft 260° 260° 14 kt METAR CYOW 200700Z 26014KT 15SM BKN090 BKN150 BKN220 05/M01 A2986 RMK AC5AC1CI1 SLP118=
02:00
V
5 °C 15 mi 15.000 ft 250° 250° 9 - 15 kt METAR CYOW 200600Z 25009G15KT 15SM BKN150 05/01 A2988 RMK AC5 SLP122=
01:00
V
6 °C 15 mi 15.000 ft 240° 240° 9 kt METAR CYOW 200500Z 24009KT 15SM FEW040 BKN150 06/01 A2989 RMK SC1AC5 SC TR SLP126=
00:00
V
6 °C 15 mi - 250° 250° 8 kt METAR CYOW 200400Z 25008KT 15SM FEW060 SCT150 06/01 A2987 RMK SC1AC3 SC TR SLP120=

19 aprile 2024

Tempo Codice Tempo meteorologico Temp. Vista Base nuvolosa Vento METAR/SPECI
23:00
V
7 °C 15 mi - 270° 270° 15 - 21 kt METAR CYOW 200300Z 27015G21KT 15SM FEW040 FEW160 07/01 A2986 RMK SC1AC1 SC TR AC TR SLP117=
22:00
V
8 °C 15 mi - 260° 260° 14 - 25 kt METAR CYOW 200200Z 26014G25KT 15SM FEW040 08/04 A2986 RMK SC1 SC TR SLP115=
21:00
V
10 °C 15 mi - 230° 230° 16 kt METAR CYOW 200100Z 23016KT 15SM FEW040 10/10 A2982 RMK SC1 SC TR SLP101=
20:00
V
10 °C 15 mi - 230° 230° 12 - 19 kt METAR CYOW 200000Z 23012G19KT 15SM FEW040 10/10 A2978 RMK SC1 SC TR SLP088=
19:22
V
11 °C 15 mi - 220° 220° 14 - 20 kt METAR SPECI CYOW 192322Z 22014G20KT 15SM FEW010 FEW045 11/11 A2977 RMK SF1SC1 SF TR SC TR SLP086=
19:00
M
11 °C 15 mi 1.100 ft 220° 220° 16 - 22 kt METAR CYOW 192300Z 22016G22KT 15SM BKN011 BKN043 11/11 A2977 RMK SF5SC2 SLP084=
18:09
I
11 °C 10 mi 700 ft 210° 210° 13 - 18 kt METAR CYOW 192209Z 21013G18KT 10SM OVC007 11/11 A2975 RMK SF8 SLP080
18:00
I
11 °C 10 mi 500 ft 210° 210° 13 - 20 kt METAR CYOW 192200Z 21013G20KT 10SM DZ OVC005 11/11 A2975 RMK SF8 SLP079=
17:46
I
10 °C 4 mi 500 ft 210° 210° 13 - 21 kt METAR SPECI CYOW 192146Z 21013G21KT 4SM DZ BR OVC005 10/10 A2975 RMK SF8 SLP079=
17:33
I
10 °C 2½ mi 500 ft 200° 200° 11 - 20 kt METAR CYOW 192133Z 20011G20KT 2 1/2SM -DZ BR OVC005 10/10 A2975 RMK FG2SF6 SLP078
17:06
I
10 °C 2 mi 600 ft 200° 200° 10 kt METAR CYOW 192106Z 20010KT 2SM -RADZ BR OVC006 10/10 A2975 RMK FG3SF5 SLP078
17:00
I
10 °C 2½ mi 600 ft 190° 190° 7 kt METAR CYOW 192100Z 19007KT 21/2SM DZ BR OVC006 10/10 A2975 RMK FG2SF6 SLP078=
16:35
I
10 °C 5 mi 700 ft 170° 170° 10 - 15 kt METAR SPECI CYOW 192035Z 17010G15KT 5SM DZ BR BKN007 OVC015 10/10 A2974 RMK SF5SC3 SLP077=
16:00
M
11 °C 4 mi 1.300 ft 180° 180° 11 - 17 kt METAR CYOW 192000Z 18011G17KT 4SM RA BR BKN013 OVC025 11/10 A2976 RMK SC7SC1 SLP081=
15:52
M
11 °C 4 mi 1.400 ft 170° 170° 11 - 17 kt METAR SPECI CYOW 191952Z 17011G17KT 4SM RA BR BKN014 OVC027 11/11 A2976 RMK SC6SC2 SLP083=
15:21
M
11 °C 8 mi 1.000 ft 170° 170° 7 kt METAR SPECI CYOW 191921Z 17007KT 8SM RA BKN010 OVC025 11/11 A2977 RMK SC5SC3 SLP087=
15:00
M
12 °C 15 mi 1.800 ft 170° 170° 7 kt METAR CYOW 191900Z 17007KT 15SM SCT009 BKN018 OVC065 12/12 A2978 RMK SF3SC3SC2 SLP088=
14:48
M
12 °C 15 mi 1.800 ft 150° 150° 6 kt METAR SPECI CYOW 191848Z 15006KT 15SM BKN018 OVC065 12/12 A2978 RMK SC5SC3 SLP089=
14:00
M
11 °C 8 mi 1.800 ft 180° 180° 5 kt METAR CYOW 191800Z 18005KT 8SM RA OVC018 11/11 A2981 RMK SC8 SLP099=
13:17
M
11 °C 10 mi 1.700 ft 130° 130° 9 kt METAR CYOW 191717Z 13009KT 10SM -RA OVC017 11/10 A2981 RMK SC8 SLP098
13:00
M
12 °C 15 mi 1.400 ft 140° 140° 9 - 16 kt METAR CYOW 191700Z 14009G16KT 15SM RA OVC014 12/10 A2982 RMK SC8 SLP103=
12:54
M
11 °C 15 mi 1.400 ft 140° 140° 11 kt METAR SPECI CYOW 191654Z 14011KT 15SM RA OVC014 11/09 A2983 RMK SC8 SLP105=
12:25
M
11 °C 15 mi 1.100 ft 140° 140° 12 kt METAR SPECI CYOW 191625Z 14012KT 15SM BKN011 OVC085 11/09 A2985 RMK SC7AC1 SLP113=
12:00
M
11 °C 15 mi 1.000 ft 130° 130° 10 - 17 kt METAR CYOW 191600Z 13010G17KT 100V160 15SM BKN010 OVC085 11/10 A2988 RMK SC7AC1 SLP122=
11:45
M
12 °C 15 mi 1.000 ft 120° 120° 11 kt METAR SPECI CYOW 191545Z 12011KT 15SM BKN010 OVC085 12/11 A2987 RMK SC7AC1 PRESFR SLP118=
11:23
M
10 °C 15 mi 1.000 ft 150° 150° 7 kt METAR SPECI CYOW 191523Z 15007KT 15SM RA OVC010 10/10 A2992 RMK SC8 SLP135=
11:00
I
10 °C 15 mi 800 ft 150° 150° 6 kt METAR CYOW 191500Z 15006KT 15SM RA OVC008 10/10 A2994 RMK SC8 SLP143=
10:56
I
10 °C 15 mi 800 ft 150° 150° 6 kt METAR SPECI CYOW 191456Z 15006KT 15SM RA OVC008 10/10 A2994 RMK SC8 SLP144=
10:32
I
9 °C 15 mi 800 ft 160° 160° 7 kt METAR SPECI CYOW 191432Z 16007KT 120V190 15SM OVC008 09/09 A2994 RMK SC8 PRESRR SLP145=
10:00
I
9 °C 10 mi 500 ft 130° 130° 8 kt METAR CYOW 191400Z 13008KT 10SM OVC005 09/09 A2994 RMK ST8 SLP142=
09:51
I
9 °C 10 mi 500 ft 130° 130° 7 kt METAR SPECI CYOW 191351Z 13007KT 10SM OVC005 09/09 A2994 RMK ST8 SLP144=
09:00
L
8 °C 10 mi 400 ft 150° 150° 6 kt METAR CYOW 191300Z 15006KT 10SM OVC004 08/08 A2998 RMK ST8 SLP155=
08:30
L
8 °C 10 mi 400 ft 140° 140° 6 kt METAR SPECI CYOW 191230Z 14006KT 10SM OVC004 08/08 A2998 RMK ST8 SLP156=
08:00
L
8 °C 10 mi 300 ft 140° 140° 5 kt METAR CYOW 191200Z 14005KT 10SM OVC003 08/08 A2998 RMK ST8 SLP158=
07:00
I
7 °C 10 mi 700 ft 160° 160° 6 kt METAR CYOW 191100Z 16006KT 10SM OVC007 07/07 A3000 RMK SF8 SLP164=
06:49
I
7 °C 10 mi 700 ft 160° 160° 6 kt METAR SPECI CYOW 191049Z 16006KT 10SM OVC007 07/07 A3000 RMK SF8 SLP164=
06:00
L
7 °C 7 mi 400 ft 160° 160° 6 kt METAR CYOW 191000Z 16006KT 7SM OVC004 07/07 A3000 RMK SC8 SLP164=
05:31
L
7 °C 6 mi 400 ft 180° 180° 5 kt METAR SPECI CYOW 190931Z 18005KT 150V210 6SM BR OVC004 07/07 A3000 RMK ST8 PRESRR SLP166=
05:22
L
7 °C 5 mi 400 ft 150° 150° 7 kt METAR SPECI CYOW 190922Z 15007KT 5SM DZ BR OVC004 07/07 A2999 RMK ST8 PRESFR SLP162=
05:00
L
8 °C 3 mi 200 ft 170° 170° 5 kt METAR CYOW 190900Z 17005KT 3SM DZ BR OVC002 08/08 A3002 RMK ST8 SLP170=
04:00
L
8 °C 1½ mi 200 ft 160° 160° 4 kt METAR CYOW 190800Z 16004KT 11/2SM DZ BR OVC002 08/08 A3002 RMK FG3ST5 SLP171=
03:50
L
8 °C 1½ mi 200 ft 160° 160° 5 kt METAR SPECI CYOW 190750Z 16005KT 11/2SM R07/4500VP6000FT/U R32/4500VP6000FT/U DZ BR OVC002 08/08 A3002 RMK FG3ST5 SLP170=
03:42
L
8 °C ⅝ mi 200 ft 160° 160° 4 kt METAR SPECI CYOW 190742Z 16004KT 5/8SM R07/4000V5000FT/U R32/4000V4500FT/N DZ BR OVC002 08/08 A3002 RMK FG4ST4 SLP171=
03:00
L
8 °C ⅜ mi 200 ft 180° 180° 6 kt METAR CYOW 190700Z 18006KT 3/8SM R07/3000V3500FT/N R32/2800V3000FT/N DZ FG OVC002 08/08 A3003 RMK FG7ST1 SLP176=
02:00
L
8 °C ⅜ mi 200 ft 160° 160° 5 kt METAR CYOW 190600Z 16005KT 3/8SM R07/3000FT/N R32/2600V2800FT/N DZ BR OVC002 08/08 A3002 RMK FG7ST1 SLP172=
01:46
L
8 °C ⅜ mi 200 ft 160° 160° 5 kt METAR SPECI CYOW 190546Z 16005KT 3/8SM R07/3000V6000FT/D R32/3000V5000FT/D DZ BR OVC002 08/08 A3003 RMK FG7ST1 SLP173=
01:37
L
8 °C ⅝ mi 300 ft 160° 160° 4 kt METAR SPECI CYOW 190537Z 16004KT 5/8SM R07/P6000FT/D R32/5500VP6000FT/D DZ BR OVC003 08/08 A3003 RMK FG5ST3 SLP174=
01:00
L
8 °C 6 mi 300 ft 150° 150° 4 kt METAR CYOW 190500Z 15004KT 6SM DZ BR OVC003 08/08 A3004 RMK ST8 VIS VRB 2-4 SLP179=
00:42
L
8 °C 6 mi 300 ft 170° 170° 4 kt METAR SPECI CYOW 190442Z 17004KT 6SM DZ BR OVC003 08/08 A3005 RMK ST8 SLP180=
00:23
L
8 °C 2½ mi 300 ft 140° 140° 3 kt METAR SPECI CYOW 190423Z 14003KT 21/2SM DZ BR OVC003 08/08 A3005 RMK FG1ST7 SLP180=
00:00
L
8 °C 1½ mi 200 ft 150° 150° 2 kt METAR CYOW 190400Z 15002KT 11/2SM DZ BR OVC002 08/08 A3005 RMK FG3ST5 SLP181=

18 aprile 2024

Tempo Codice Tempo meteorologico Temp. Vista Base nuvolosa Vento METAR/SPECI
23:00
L
8 °C 1 mi 200 ft 130° 130° 2 kt METAR CYOW 190300Z 13002KT 1SM R07/P6000FT/U R32/P6000FT/U DZ BR OVC002 08/08 A3006 RMK FG4SF4 SLP183=
22:31
L
8 °C 8 mi 200 ft 360° 360° 0 kt METAR SPECI CYOW 190231Z 00000KT 8SM DZ OVC002 08/08 A3006 RMK SF8 SLP183=
22:16
L
8 °C 8 mi 400 ft 160° 160° 3 kt METAR SPECI CYOW 190216Z 16003KT 8SM DZ BKN004 OVC010 08/08 A3006 RMK SF5SC3 SLP185=
22:07
L
8 °C 8 mi 400 ft 130° 130° 3 kt METAR SPECI CYOW 190207Z 13003KT 8SM OVC004 08/08 A3006 RMK SC8 SLP185=
22:00
I
8 °C 8 mi 600 ft 120° 120° 4 kt METAR CYOW 190200Z 12004KT 8SM OVC006 08/08 A3006 RMK SC8 SLP184=
21:00
I
8 °C 8 mi 800 ft 360° 360° 0 kt METAR CYOW 190100Z 00000KT 8SM BKN008 OVC025 08/08 A3005 RMK SC6SC2 SLP183=
20:48
I
8 °C 8 mi 800 ft 360° 360° 0 kt METAR SPECI CYOW 190048Z 00000KT 8SM BKN008 OVC025 08/08 A3005 RMK SC6SC2 SLP183=
20:17
L
8 °C 5 mi 400 ft 360° 360° 0 kt METAR SPECI CYOW 190017Z 00000KT 5SM BR OVC004 08/08 A3004 RMK SC8 SLP180=
20:00
L
8 °C 3 mi 400 ft 210° 210° 2 kt METAR CYOW 190000Z 21002KT 3SM DZ BR BKN004 OVC020 08/08 A3004 RMK ST7SC1 SLP180=
19:15
I
8 °C 2 mi 500 ft 250° 250° 4 kt METAR SPECI CYOW 182315Z CCA 25004KT 2SM DZ BR BKN005 OVC018 08/08 A3005 RMK FG2ST5SC1 CIG VRB 4-6 SLP180=
19:00
I
8 °C 3 mi 500 ft 250° 250° 5 kt METAR CYOW 182300Z 25005KT 3SM DZ BR BKN005 OVC018 08/08 A3005 RMK ST7SC1 SLP180=
18:00
I
8 °C 10 mi 700 ft 230° 230° 4 kt METAR CYOW 182200Z 23004KT 10SM DZ BKN007 OVC018 08/08 A3003 RMK SF7SC1 SLP176=
17:46
I
9 °C 8 mi 700 ft 230° 230° 4 kt METAR SPECI CYOW 182146Z 23004KT 8SM DZ OVC007 09/09 A3004 RMK SF8 SLP177=
17:35
I
8 °C 8 mi 900 ft 220° 220° 5 kt METAR SPECI CYOW 182135Z 22005KT 8SM SCT004 OVC009 08/08 A3004 RMK SF4SC4 SLP177=
17:07
L
9 °C 8 mi 400 ft 240° 240° 4 kt METAR SPECI CYOW 182107Z 24004KT 8SM DZ BKN004 OVC008 09/09 A3002 RMK SF6SC2 SLP172=
17:00
L
9 °C 8 mi 400 ft 240° 240° 4 kt METAR CYOW 182100Z 24004KT 190V280 8SM BKN004 OVC008 09/09 A3002 RMK SF6SC2 SLP170=
16:54
L
9 °C 8 mi 400 ft 220° 220° 4 kt METAR SPECI CYOW 182054Z 22004KT 190V260 8SM OVC004 09/09 A3002 RMK ST8 SLP170=
16:23
L
8 °C 6 mi 400 ft 220° 220° 5 kt METAR SPECI CYOW 182023Z 22005KT 6SM DZ BR OVC004 08/08 A3002 RMK ST8 SLP170=
16:00
L
9 °C 5 mi 400 ft 200° 200° 5 kt METAR CYOW 182000Z 20005KT 160V230 5SM RADZ BR OVC004 09/09 A3001 RMK SF8 SLP168=
15:39
L
9 °C 3 mi 300 ft 180° 180° 3 kt METAR SPECI CYOW 181939Z 18003KT 120V220 3SM RADZ BR OVC003 09/09 A3001 RMK ST8 SLP168=
15:00
L
8 °C 4 mi 300 ft 090° 090° 8 kt METAR CYOW 181900Z 09008KT 4SM DZ BR OVC003 08/08 A2999 RMK ST8 SLP162=
14:22
L
8 °C 4 mi 300 ft 080° 080° 7 kt METAR SPECI CYOW 181822Z 08007KT 4SM R32/5000VP6000FT/U DZ BR OVC003 08/08 A3000 RMK SF8 SLP166=
14:00
L
8 °C 2 mi 300 ft 110° 110° 6 kt METAR CYOW 181800Z 11006KT 090V240 2SM R32/4000VP6000FT/D RADZ BR OVC003 08/08 A3000 RMK FG3SF5 SLP164=
13:31
L
7 °C 2 mi 300 ft 100° 100° 9 - 15 kt METAR SPECI CYOW 181731Z 10009G15KT 2SM R07/5500VP6000FT/N R32/4500V5500FT/N RADZ BR OVC003 07/07 A2999 RMK FG3SF5 SLP162=
13:00
L
7 °C 2 mi 400 ft 090° 090° 10 kt METAR CYOW 181700Z 09010KT 2SM R32/4500VP6000FT/D RADZ BR OVC004 07/07 A2999 RMK FG3SF5 SLP160=
12:50
L
7 °C 2 mi 400 ft 080° 080° 9 - 17 kt METAR SPECI CYOW 181650Z 08009G17KT 2SM RADZ BR OVC004 07/07 A2998 RMK FG3SF5 SLP158=
12:00
L
6 °C 4 mi 400 ft 080° 080° 12 - 19 kt METAR CYOW 181600Z 08012G19KT 4SM RA BR BKN004 OVC022 06/06 A2998 RMK SF7SC1 SLP156=
11:00
I
5 °C 5 mi 500 ft 070° 070° 13 - 19 kt METAR CYOW 181500Z 07013G19KT 5SM RA BR BKN005 OVC022 05/05 A2998 RMK SF6SC2 SLP158=
10:39
I
5 °C 6 mi 500 ft 080° 080° 13 kt METAR SPECI CYOW 181439Z 08013KT 6SM RA BR BKN005 OVC021 05/05 A2998 RMK SF6SC2 SLP158=
10:00
M
4 °C 10 mi 2.100 ft 080° 080° 12 kt METAR CYOW 181400Z 08012KT 10SM RA SCT008 OVC021 04/04 A2997 RMK SF3SC5 SLP153=
Segnala modifiche